Time;durP1;ratioP1;P1;durP2;ratioP2;P2;SDS_P1;SDS_P2;PMS_P1;PMS_P2;Temp;Humidity;BMP_temperature;BMP_pressure;BME280_temperature;BME280_humidity;BME280_pressure;Samples;Min_cycle;Max_cycle;Signal;HPM_P1;HPM_P2
2023/04/04 00:01:12;;;;;;;24.08;4.60;;;;;;;16.04;100.00;99943.38;2076154;28;20041;-70
2023/04/04 00:02:33;;;;;;;23.75;4.38;;;;;;;16.01;100.00;99943.47;2068910;28;20080;-70
2023/04/04 00:03:56;;;;;;;19.20;3.80;;;;;;;15.97;100.00;99940.88;2075251;28;20057;-70
2023/04/04 00:05:19;;;;;;;23.08;4.57;;;;;;;15.94;100.00;99934.72;2071935;28;20060;-70
2023/04/04 00:06:44;;;;;;;24.35;5.35;;;;;;;15.94;100.00;99933.84;2069419;28;20042;-69
2023/04/04 00:08:06;;;;;;;22.88;4.78;;;;;;;15.92;100.00;99933.88;2078183;28;20042;-70
2023/04/04 00:09:29;;;;;;;24.80;5.72;;;;;;;15.87;100.00;99930.44;2078903;28;20489;-69
2023/04/04 00:10:58;;;;;;;25.42;5.03;;;;;;;15.82;100.00;99932.28;2077398;28;20265;-69
2023/04/04 00:12:21;;;;;;;24.23;5.13;;;;;;;15.74;100.00;99934.22;2070336;28;20061;-70
2023/04/04 00:13:44;;;;;;;24.83;4.93;;;;;;;15.72;100.00;99938.69;2074335;28;20169;-69
2023/04/04 00:15:06;;;;;;;21.65;4.38;;;;;;;15.73;100.00;99929.81;2069899;28;20069;-70
2023/04/04 00:16:28;;;;;;;26.33;5.28;;;;;;;15.73;100.00;99942.22;2063100;28;20157;-70
2023/04/04 00:17:51;;;;;;;21.60;4.35;;;;;;;15.71;100.00;99942.25;2073909;28;20437;-70
2023/04/04 00:19:16;;;;;;;18.25;4.00;;;;;;;15.70;100.00;99937.84;2069178;28;20049;-69
2023/04/04 00:20:41;;;;;;;18.30;3.78;;;;;;;15.72;100.00;99941.34;2074879;28;20124;-69
2023/04/04 00:22:03;;;;;;;19.50;4.30;;;;;;;15.74;100.00;99941.34;2075379;28;20072;-69
2023/04/04 00:23:25;;;;;;;16.85;3.47;;;;;;;15.75;100.00;99933.28;2074184;28;20611;-69
2023/04/04 00:24:48;;;;;;;15.10;3.20;;;;;;;15.75;100.00;99925.31;2077226;28;20533;-70
2023/04/04 00:26:11;;;;;;;19.80;4.03;;;;;;;15.76;100.00;99927.06;2077346;28;20114;-69
2023/04/04 00:27:35;;;;;;;16.73;3.05;;;;;;;15.77;100.00;99927.94;2067865;28;20133;-69
2023/04/04 00:28:58;;;;;;;16.17;2.95;;;;;;;15.79;100.00;99918.16;2081748;28;20075;-69
2023/04/04 00:30:19;;;;;;;19.27;3.75;;;;;;;15.80;100.00;99915.47;2075732;28;20049;-70
2023/04/04 00:31:42;;;;;;;20.00;3.28;;;;;;;15.83;100.00;99918.06;2071685;28;20092;-70
2023/04/04 00:33:05;;;;;;;15.63;3.13;;;;;;;15.84;100.00;99914.50;2071119;28;20046;-69
2023/04/04 00:34:27;;;;;;;13.52;3.53;;;;;;;15.86;100.00;99917.16;2078627;28;20084;-70
2023/04/04 00:35:50;;;;;;;19.45;3.85;;;;;;;15.86;100.00;99912.69;2075357;28;20148;-69
2023/04/04 00:37:13;;;;;;;16.80;3.20;;;;;;;15.85;100.00;99904.75;2070646;28;20038;-70
2023/04/04 00:38:35;;;;;;;20.13;4.32;;;;;;;15.84;100.00;99909.19;2065970;28;20054;-70
2023/04/04 00:39:58;;;;;;;18.05;3.67;;;;;;;15.83;100.00;99910.09;2069636;28;20073;-70
2023/04/04 00:41:21;;;;;;;19.85;3.60;;;;;;;15.82;100.00;99904.78;2071569;28;20069;-70
2023/04/04 00:42:42;;;;;;;23.48;3.38;;;;;;;15.81;100.00;99895.94;2076256;28;20046;-70
2023/04/04 00:44:05;;;;;;;16.58;3.55;;;;;;;15.79;100.00;99892.44;2074444;28;20056;-69
2023/04/04 00:45:28;;;;;;;15.30;2.47;;;;;;;15.79;100.00;99896.88;2076645;28;20076;-69
2023/04/04 00:46:52;;;;;;;19.67;2.80;;;;;;;15.78;100.00;99887.13;2068762;28;20216;-70
2023/04/04 00:48:14;;;;;;;16.92;2.67;;;;;;;15.77;100.00;99880.94;2070749;28;20046;-70
2023/04/04 00:49:36;;;;;;;13.90;2.42;;;;;;;15.77;100.00;99888.91;2065582;28;20550;-70
2023/04/04 00:51:01;;;;;;;11.45;2.30;;;;;;;15.78;100.00;99881.81;2073368;28;20045;-70
2023/04/04 00:52:22;;;;;;;15.93;2.50;;;;;;;15.76;100.00;99887.16;2067026;28;20038;-69
2023/04/04 00:53:46;;;;;;;15.00;3.03;;;;;;;15.75;100.00;99884.56;2073280;28;20052;-70
2023/04/04 00:55:09;;;;;;;12.55;2.10;;;;;;;15.74;100.00;99881.00;2066652;28;20170;-70
2023/04/04 00:56:35;;;;;;;12.75;2.10;;;;;;;15.74;100.00;99880.13;2074796;28;20053;-70
2023/04/04 00:57:58;;;;;;;13.95;2.13;;;;;;;15.71;100.00;99878.41;2073159;28;20502;-70
2023/04/04 00:59:21;;;;;;;14.70;2.13;;;;;;;15.69;100.00;99880.19;2075859;28;20050;-70
2023/04/04 01:00:44;;;;;;;11.57;1.60;;;;;;;15.71;100.00;99886.38;2075835;28;20049;-70
2023/04/04 01:02:05;;;;;;;10.43;1.95;;;;;;;15.72;100.00;99882.81;2076313;28;20041;-70
2023/04/04 01:03:28;;;;;;;10.57;1.63;;;;;;;15.70;100.00;99873.97;2075844;28;20050;-70
2023/04/04 01:04:51;;;;;;;13.10;1.70;;;;;;;15.72;100.00;99885.47;2066735;28;20045;-70
2023/04/04 01:06:16;;;;;;;10.20;1.90;;;;;;;15.72;100.00;99887.25;2074333;28;20059;-70
2023/04/04 01:07:38;;;;;;;11.60;1.77;;;;;;;15.70;100.00;99887.28;2064174;28;20042;-69
2023/04/04 01:09:01;;;;;;;8.55;1.83;;;;;;;15.71;100.00;99896.13;2071620;28;20037;-70
2023/04/04 01:10:22;;;;;;;8.90;1.90;;;;;;;15.72;100.00;99903.22;2078987;28;20600;-70
2023/04/04 01:11:45;;;;;;;8.05;1.50;;;;;;;15.69;100.00;99898.81;2067911;28;20048;-70
2023/04/04 01:13:07;;;;;;;9.48;1.52;;;;;;;15.71;100.00;99894.34;2076015;28;20083;-70
2023/04/04 01:14:28;;;;;;;7.07;1.40;;;;;;;15.71;100.00;99898.81;2076183;28;20126;-69
2023/04/04 01:15:51;;;;;;;12.15;1.40;;;;;;;15.69;100.00;99901.47;2067447;28;20077;-70
2023/04/04 01:17:13;;;;;;;11.13;2.10;;;;;;;15.69;100.00;99893.50;2066126;28;20049;-70
2023/04/04 01:18:37;;;;;;;8.00;2.03;;;;;;;15.68;100.00;99894.44;2064426;28;20038;-70
2023/04/04 01:20:04;;;;;;;15.18;1.73;;;;;;;15.68;100.00;99894.44;2066670;28;21001;-70
2023/04/04 01:21:36;;;;;;;12.75;1.98;;;;;;;15.67;100.00;99900.66;2069435;28;20165;-69
2023/04/04 01:23:01;;;;;;;13.10;1.90;;;;;;;15.68;100.00;99891.78;2066609;28;20398;-70
2023/04/04 01:24:28;;;;;;;11.68;1.60;;;;;;;15.69;100.00;99909.47;2063632;28;20587;-70
2023/04/04 01:26:01;;;;;;;10.63;1.55;;;;;;;15.71;100.00;99902.34;2066566;28;20489;-70
2023/04/04 01:27:25;;;;;;;11.10;1.67;;;;;;;15.71;100.00;99910.31;2063631;28;20117;-69
2023/04/04 01:28:53;;;;;;;12.05;1.67;;;;;;;15.70;100.00;99905.91;2074822;28;20045;-70
2023/04/04 01:30:16;;;;;;;10.50;1.80;;;;;;;15.73;100.00;99902.31;2068760;28;20137;-70
2023/04/04 01:31:41;;;;;;;8.30;1.40;;;;;;;15.72;100.00;99904.09;2068479;28;20053;-70
2023/04/04 01:33:14;;;;;;;12.25;2.33;;;;;;;15.72;100.00;99904.09;2066906;28;20041;-70
2023/04/04 01:34:47;;;;;;;10.55;2.10;;;;;;;15.71;100.00;99902.34;2069746;28;20057;-69
2023/04/04 01:36:17;;;;;;;8.10;1.70;;;;;;;15.70;100.00;99897.91;2068757;28;20506;-70
2023/04/04 01:37:46;;;;;;;10.63;2.10;;;;;;;15.69;100.00;99908.59;2067742;28;20506;-70
2023/04/04 01:39:18;;;;;;;9.60;1.58;;;;;;;15.67;100.00;99911.31;2066869;28;20069;-70
2023/04/04 01:40:45;;;;;;;11.25;1.90;;;;;;;15.66;100.00;99909.53;2072931;28;20069;-70
2023/04/04 01:42:09;;;;;;;10.52;1.88;;;;;;;15.67;100.00;99910.41;2063954;28;20068;-70
2023/04/04 01:43:31;;;;;;;12.68;2.00;;;;;;;15.65;100.00;99909.56;2060613;28;20458;-70
2023/04/04 01:44:56;;;;;;;12.80;2.25;;;;;;;15.64;100.00;99913.13;2068970;28;20050;-70
2023/04/04 01:46:23;;;;;;;11.88;1.90;;;;;;;15.64;100.00;99913.13;2069347;28;20152;-70
2023/04/04 01:47:45;;;;;;;12.50;2.40;;;;;;;15.66;100.00;99900.69;2069907;28;20056;-69
2023/04/04 01:49:12;;;;;;;13.80;2.25;;;;;;;15.66;100.00;99900.69;2062367;28;20062;-69
2023/04/04 01:50:34;;;;;;;11.55;2.33;;;;;;;15.66;100.00;99898.91;2073453;28;20046;-69
2023/04/04 01:51:57;;;;;;;11.35;2.00;;;;;;;15.67;100.00;99899.78;2074701;28;20057;-69
2023/04/04 01:53:18;;;;;;;12.02;2.78;;;;;;;15.69;100.00;99898.81;2068451;28;20057;-69
2023/04/04 01:54:41;;;;;;;11.07;2.10;;;;;;;15.69;100.00;99897.94;2076146;28;20051;-69
2023/04/04 01:56:02;;;;;;;13.25;2.42;;;;;;;15.70;100.00;99903.25;2062950;28;20394;-69
2023/04/04 01:57:29;;;;;;;12.57;2.20;;;;;;;15.74;100.00;99912.06;2064115;28;20576;-69
2023/04/04 01:58:52;;;;;;;13.85;2.15;;;;;;;15.76;100.00;99902.25;2058193;28;20081;-70
2023/04/04 02:00:16;;;;;;;15.95;2.78;;;;;;;15.77;100.00;99904.00;2063914;28;20153;-70
2023/04/04 02:01:37;;;;;;;12.00;2.17;;;;;;;15.78;100.00;99914.63;2067999;28;20049;-70
2023/04/04 02:03:00;;;;;;;18.05;2.92;;;;;;;15.81;100.00;99917.25;2067715;28;20577;-70
2023/04/04 02:04:23;;;;;;;17.48;2.25;;;;;;;15.81;100.00;99909.25;2073223;28;20068;-70
2023/04/04 02:05:45;;;;;;;16.42;2.67;;;;;;;15.83;100.00;99907.41;2062203;28;20054;-69
2023/04/04 02:07:08;;;;;;;20.38;2.83;;;;;;;15.83;100.00;99904.75;2063861;28;20083;-70
2023/04/04 02:08:30;;;;;;;13.45;2.35;;;;;;;15.81;100.00;99895.94;2074932;28;20156;-69
2023/04/04 02:09:54;;;;;;;16.55;2.25;;;;;;;15.80;100.00;99906.63;2072595;28;20394;-70
2023/04/04 02:11:15;;;;;;;12.20;2.05;;;;;;;15.76;100.00;99899.59;2075905;28;20564;-70
2023/04/04 02:12:39;;;;;;;17.58;2.65;;;;;;;15.74;100.00;99894.31;2069152;28;20136;-70
2023/04/04 02:14:02;;;;;;;15.80;2.55;;;;;;;15.72;100.00;99895.25;2070408;28;20038;-70
2023/04/04 02:15:25;;;;;;;16.63;2.42;;;;;;;15.69;100.00;99896.16;2062378;28;20490;-70
2023/04/04 02:16:46;;;;;;;12.48;2.28;;;;;;;15.66;100.00;99898.91;2075717;28;20095;-70
2023/04/04 02:18:09;;;;;;;16.95;2.67;;;;;;;15.63;100.00;99904.25;2064728;28;20109;-70
2023/04/04 02:19:30;;;;;;;17.63;3.17;;;;;;;15.62;100.00;99902.50;2062175;28;20058;-69
2023/04/04 02:20:57;;;;;;;15.15;2.58;;;;;;;15.60;100.00;99907.00;2067365;28;20054;-70
2023/04/04 02:22:18;;;;;;;15.98;2.60;;;;;;;15.60;100.00;99899.03;2074843;28;20053;-70
2023/04/04 02:23:40;;;;;;;18.95;2.50;;;;;;;15.63;100.00;99898.94;2078790;28;20049;-69
2023/04/04 02:25:01;;;;;;;16.55;2.72;;;;;;;15.66;100.00;99898.91;2068193;28;20050;-69
2023/04/04 02:26:24;;;;;;;19.73;2.92;;;;;;;15.72;100.00;99901.44;2074275;28;20041;-70
2023/04/04 02:27:46;;;;;;;15.52;2.00;;;;;;;15.79;100.00;99897.75;2076749;28;20140;-70
2023/04/04 02:29:09;;;;;;;17.33;2.65;;;;;;;15.84;100.00;99887.00;2071519;28;20045;-70
2023/04/04 02:30:30;;;;;;;17.17;2.63;;;;;;;15.87;100.00;99893.16;2071800;28;20566;-70
2023/04/04 02:31:53;;;;;;;;;;;;;;;15.88;100.00;99894.88;2067139;28;20120;-70
2023/04/04 02:33:16;;;;;;;;;;;;;;;15.88;100.00;99896.72;2076094;28;20660;-70
2023/04/04 02:34:37;;;;;;;19.80;2.75;;;;;;;15.92;100.00;99896.59;2069522;28;19921;-70
2023/04/04 02:36:00;;;;;;;15.63;2.25;;;;;;;15.98;100.00;99903.59;2069712;28;20050;-70
2023/04/04 02:37:24;;;;;;;18.30;3.33;;;;;;;16.03;100.00;99899.03;2083165;28;20468;-70
2023/04/04 02:38:47;;;;;;;12.65;2.45;;;;;;;16.08;100.00;99899.81;2070200;28;20132;-70
2023/04/04 02:40:11;;;;;;;16.42;3.10;;;;;;;16.11;100.00;99897.09;2069825;28;20056;-70
2023/04/04 02:41:32;;;;;;;15.13;2.45;;;;;;;16.15;100.00;99892.56;2065103;28;20145;-70
2023/04/04 02:42:56;;;;;;;17.20;2.88;;;;;;;16.21;100.00;99911.97;2069726;28;20145;-70
2023/04/04 02:44:18;;;;;;;11.63;2.25;;;;;;;16.25;100.00;99908.34;2066833;28;20057;-69
2023/04/04 02:45:42;;;;;;;15.52;2.85;;;;;;;16.31;100.00;99904.66;2050844;28;20046;-70
2023/04/04 02:47:19;;;;;;;13.95;2.38;;;;;;;16.33;100.00;99893.09;2069410;28;20058;-70
2023/04/04 02:48:40;;;;;;;14.23;2.13;;;;;;;16.34;100.00;99904.63;2066431;28;20050;-70
2023/04/04 02:50:03;;;;;;;15.65;2.47;;;;;;;16.37;100.00;99903.66;2062013;28;20072;-69
2023/04/04 02:51:26;;;;;;;15.90;2.60;;;;;;;16.39;100.00;99907.16;2070001;28;20429;-70
2023/04/04 02:52:50;;;;;;;11.95;2.20;;;;;;;16.39;100.00;99904.50;2074638;28;20474;-70
2023/04/04 02:54:12;;;;;;;20.92;2.75;;;;;;;16.40;100.00;99912.47;2076204;28;20419;-70
2023/04/04 02:55:38;;;;;;;15.93;2.83;;;;;;;16.41;100.00;99914.19;2069337;28;20054;-70
2023/04/04 02:57:00;;;;;;;17.15;2.60;;;;;;;16.41;100.00;99911.53;2074961;28;20049;-70
2023/04/04 02:58:23;;;;;;;12.70;2.15;;;;;;;16.44;100.00;99916.81;2067727;28;20091;-70
2023/04/04 02:59:45;;;;;;;16.67;2.38;;;;;;;16.45;100.00;99915.91;2075312;28;20050;-70
2023/04/04 03:01:07;;;;;;;15.90;2.58;;;;;;;16.49;100.00;99917.56;2069893;28;20088;-70
2023/04/04 03:02:32;;;;;;;17.92;2.50;;;;;;;16.52;100.00;99912.19;2066895;28;20524;-70
2023/04/04 03:03:55;;;;;;;20.05;2.90;;;;;;;16.56;100.00;99916.53;2072181;28;20083;-70
2023/04/04 03:05:16;;;;;;;13.02;2.35;;;;;;;16.60;100.00;99920.06;2069940;28;20053;-69
2023/04/04 03:06:39;;;;;;;12.80;2.25;;;;;;;16.63;100.00;99920.84;2066295;28;20180;-69
2023/04/04 03:08:01;;;;;;;14.10;2.13;;;;;;;16.65;100.00;99923.47;2074453;28;20501;-70
2023/04/04 03:09:23;;;;;;;13.45;2.28;;;;;;;16.67;100.00;99925.19;2069218;28;20133;-69
2023/04/04 03:10:46;;;;;;;;;;;;;;;16.68;100.00;99923.41;2066511;28;20045;-70
2023/04/04 03:12:07;;;;;;;17.25;2.83;;;;;;;16.67;100.00;99922.50;2075972;28;19944;-69
2023/04/04 03:13:31;;;;;;;19.83;3.28;;;;;;;16.71;100.00;99929.56;2068645;28;20595;-69
2023/04/04 03:14:53;;;;;;;13.23;2.03;;;;;;;16.74;100.00;99920.59;2073057;28;20057;-70
2023/04/04 03:16:16;;;;;;;12.35;2.00;;;;;;;16.74;100.00;99931.25;2068815;28;20045;-70
2023/04/04 03:17:42;;;;;;;15.98;2.22;;;;;;;16.76;100.00;99928.56;2066640;28;20057;-70
2023/04/04 03:19:05;;;;;;;13.13;1.80;;;;;;;16.77;100.00;99930.31;2073447;28;20137;-69
2023/04/04 03:20:27;;;;;;;13.18;2.13;;;;;;;16.78;100.00;99932.06;2075107;28;20174;-70
2023/04/04 03:21:50;;;;;;;12.02;2.80;;;;;;;16.78;100.00;99927.63;2067691;28;20518;-70
2023/04/04 03:23:11;;;;;;;14.57;2.55;;;;;;;16.80;100.00;99931.13;2065444;28;20061;-70
2023/04/04 03:24:34;;;;;;;13.90;2.40;;;;;;;16.82;100.00;99918.63;2074247;28;20049;-70
2023/04/04 03:25:56;;;;;;;12.02;1.70;;;;;;;16.83;100.00;99920.38;2077190;28;20052;-70
2023/04/04 03:27:19;;;;;;;15.70;2.22;;;;;;;16.84;100.00;99915.94;2069550;28;20513;-70
2023/04/04 03:28:43;;;;;;;18.02;2.85;;;;;;;16.84;100.00;99927.47;2073521;28;20435;-69
2023/04/04 03:30:08;;;;;;;13.45;2.63;;;;;;;16.81;100.00;99916.88;2067328;28;20581;-70
2023/04/04 03:31:31;;;;;;;13.10;2.28;;;;;;;16.82;100.00;99923.97;2067356;28;20103;-70
2023/04/04 03:32:52;;;;;;;21.02;2.85;;;;;;;16.84;100.00;99921.25;2064674;28;20445;-70
2023/04/04 03:34:15;;;;;;;15.98;2.80;;;;;;;16.84;100.00;99915.94;2074730;28;20053;-70
2023/04/04 03:35:38;;;;;;;18.10;2.88;;;;;;;16.83;100.00;99920.38;2069573;28;20299;-70
2023/04/04 03:37:00;;;;;;;15.02;2.60;;;;;;;16.83;100.00;99919.50;2077083;28;20042;-70
2023/04/04 03:38:21;;;;;;;16.15;3.13;;;;;;;16.81;100.00;99924.88;2068230;28;20057;-71
2023/04/04 03:39:44;;;;;;;19.17;2.55;;;;;;;16.81;100.00;99911.53;2073365;28;20101;-70
2023/04/04 03:41:07;;;;;;;17.08;2.83;;;;;;;16.82;100.00;99915.09;2075657;28;20115;-70
2023/04/04 03:42:33;;;;;;;18.52;2.90;;;;;;;16.83;100.00;99927.50;2065638;28;20489;-69
2023/04/04 03:43:59;;;;;;;17.17;2.88;;;;;;;16.83;100.00;99924.84;2064627;28;20042;-69
2023/04/04 03:45:20;;;;;;;13.65;2.45;;;;;;;16.83;100.00;99923.06;2065047;28;20690;-70
2023/04/04 03:46:43;;;;;;;15.45;1.90;;;;;;;16.83;100.00;99920.38;2071931;28;20041;-69
2023/04/04 03:48:10;;;;;;;13.30;2.35;;;;;;;16.84;100.00;99922.16;2070929;28;20046;-70
2023/04/04 03:49:34;;;;;;;13.95;2.25;;;;;;;16.84;100.00;99919.47;2066118;28;20160;-69
2023/04/04 03:50:56;;;;;;;17.38;2.85;;;;;;;16.86;100.00;99924.78;2065578;28;20103;-70
2023/04/04 03:52:21;;;;;;;12.57;2.35;;;;;;;16.88;100.00;99917.59;2069158;28;20037;-70
2023/04/04 03:53:43;;;;;;;12.93;2.47;;;;;;;16.89;100.00;99909.56;2071309;28;20046;-69
2023/04/04 03:55:06;;;;;;;16.65;2.92;;;;;;;16.91;100.00;99914.88;2062373;28;20034;-70
2023/04/04 03:56:30;;;;;;;16.27;2.45;;;;;;;16.91;100.00;99904.22;2068823;28;20054;-70
2023/04/04 03:57:52;;;;;;;12.30;2.58;;;;;;;16.90;100.00;99903.34;2077830;28;20072;-70
2023/04/04 03:59:17;;;;;;;17.40;2.63;;;;;;;16.91;100.00;99906.88;2066030;28;20433;-69
2023/04/04 04:00:39;;;;;;;16.67;3.45;;;;;;;16.88;100.00;99915.81;2063866;28;20054;-70
2023/04/04 04:02:01;;;;;;;14.85;2.40;;;;;;;16.88;100.00;99914.94;2066116;28;20053;-70
2023/04/04 04:03:25;;;;;;;16.13;2.78;;;;;;;16.86;100.00;99922.13;2066784;28;20042;-70
2023/04/04 04:04:46;;;;;;;14.95;2.53;;;;;;;16.86;100.00;99925.66;2073947;28;20390;-70
2023/04/04 04:06:08;;;;;;;17.52;3.30;;;;;;;16.85;100.00;99926.56;2069228;28;20037;-69
2023/04/04 04:07:30;;;;;;;19.50;2.83;;;;;;;16.86;100.00;99925.66;2067921;28;20053;-70
2023/04/04 04:08:52;;;;;;;18.08;2.72;;;;;;;16.87;100.00;99931.88;2066463;28;20050;-70
2023/04/04 04:10:13;;;;;;;13.05;2.70;;;;;;;16.86;100.00;99936.31;2065731;28;20046;-70
2023/04/04 04:11:36;;;;;;;18.55;2.83;;;;;;;16.85;100.00;99934.56;2074457;28;20130;-69
2023/04/04 04:13:00;;;;;;;13.85;2.35;;;;;;;16.84;100.00;99935.47;2074378;28;20045;-70
2023/04/04 04:14:23;;;;;;;21.48;3.17;;;;;;;16.86;100.00;99940.78;2069807;28;20572;-70
2023/04/04 04:15:46;;;;;;;18.65;2.80;;;;;;;16.86;100.00;99930.13;2067995;28;20686;-70
2023/04/04 04:17:12;;;;;;;12.85;2.10;;;;;;;16.87;100.00;99934.53;2074145;28;20083;-70
2023/04/04 04:18:35;;;;;;;17.88;3.10;;;;;;;16.88;100.00;99930.94;2069401;28;20077;-70
2023/04/04 04:19:57;;;;;;;18.88;2.90;;;;;;;16.89;100.00;99941.56;2070699;28;20193;-70
2023/04/04 04:21:21;;;;;;;17.90;3.08;;;;;;;16.91;100.00;99939.75;2066781;28;20569;-70
2023/04/04 04:22:46;;;;;;;21.45;2.67;;;;;;;16.94;100.00;99946.78;2064754;28;20080;-70
2023/04/04 04:24:09;;;;;;;16.88;2.90;;;;;;;16.95;100.00;99946.75;2075305;28;20107;-70
2023/04/04 04:25:32;;;;;;;21.45;3.17;;;;;;;16.97;100.00;99944.06;2068672;28;20046;-70
2023/04/04 04:27:05;;;;;;;17.13;2.80;;;;;;;16.97;100.00;99941.41;2068723;28;20046;-70
2023/04/04 04:28:28;;;;;;;18.83;3.05;;;;;;;16.98;100.00;99944.03;2067357;28;20121;-70
2023/04/04 04:29:52;;;;;;;17.85;2.45;;;;;;;17.00;100.00;99955.50;2067483;28;20066;-70
2023/04/04 04:31:13;;;;;;;16.80;3.33;;;;;;;17.01;100.00;99948.41;2065009;28;20049;-70
2023/04/04 04:32:39;;;;;;;14.27;3.03;;;;;;;17.01;100.00;99951.06;2068307;28;20151;-70
2023/04/04 04:34:06;;;;;;;20.65;2.78;;;;;;;17.02;100.00;99944.81;2067942;28;20084;-70
2023/04/04 04:35:27;;;;;;;17.88;3.63;;;;;;;17.03;100.00;99950.13;2063645;28;20507;-70
2023/04/04 04:36:51;;;;;;;;;;;;;;;17.02;100.00;99944.81;2066112;28;20144;-70
2023/04/04 04:38:21;;;;;;;17.30;3.17;;;;;;;17.03;100.00;99938.56;2068718;28;20051;-70
2023/04/04 04:39:44;;;;;;;;;;;;;;;17.01;100.00;99943.94;2063338;28;20060;-70
2023/04/04 04:41:22;;;;;;;21.73;3.88;;;;;;;17.00;100.00;99954.66;2069237;28;19956;-70
2023/04/04 04:42:47;;;;;;;21.27;3.58;;;;;;;17.03;100.00;99959.91;2066752;28;20077;-70
2023/04/04 04:44:14;;;;;;;22.27;3.97;;;;;;;17.05;100.00;99958.09;2069321;28;20046;-70
2023/04/04 04:45:37;;;;;;;14.68;2.42;;;;;;;17.07;100.00;99956.25;2069815;28;20050;-70
2023/04/04 04:47:04;;;;;;;20.63;3.38;;;;;;;17.08;100.00;99952.66;2066802;28;20629;-70
2023/04/04 04:48:27;;;;;;;22.55;3.03;;;;;;;17.10;100.00;99967.75;2060849;28;20573;-70
2023/04/04 04:49:51;;;;;;;19.52;3.58;;;;;;;17.13;100.00;99967.66;2063162;28;20546;-70
2023/04/04 04:51:18;;;;;;;18.50;2.95;;;;;;;17.17;100.00;99959.59;2065170;28;20094;-70
2023/04/04 04:52:45;;;;;;;19.88;2.95;;;;;;;17.17;100.00;99965.81;2067925;28;20049;-70
2023/04/04 04:54:10;;;;;;;28.65;4.38;;;;;;;17.19;100.00;99968.44;2071966;28;20091;-70
2023/04/04 04:55:34;;;;;;;24.75;3.85;;;;;;;17.19;100.00;99973.78;2061104;28;20081;-70
2023/04/04 04:57:03;;;;;;;19.90;3.30;;;;;;;17.18;100.00;99959.56;2073174;28;20033;-70
2023/04/04 04:58:24;;;;;;;22.92;3.97;;;;;;;17.20;100.00;99962.19;2065374;28;20136;-70
2023/04/04 04:59:49;;;;;;;23.55;3.35;;;;;;;17.19;100.00;99955.09;2058112;28;20047;-70
2023/04/04 05:01:14;;;;;;;23.05;4.30;;;;;;;17.20;100.00;99959.53;2061295;28;20051;-70
2023/04/04 05:02:38;;;;;;;22.15;3.70;;;;;;;17.22;100.00;99949.66;2072782;28;20077;-70
2023/04/04 05:04:00;;;;;;;17.00;2.97;;;;;;;17.27;100.00;99958.44;2062472;28;20050;-70
2023/04/04 05:05:32;;;;;;;31.20;4.32;;;;;;;17.35;100.00;99953.78;2061133;28;20054;-70
2023/04/04 05:06:59;;;;;;;25.23;4.28;;;;;;;17.40;100.00;99959.88;2066616;28;20104;-71
2023/04/04 05:08:22;;;;;;;23.50;4.38;;;;;;;17.44;100.00;99958.91;2051345;28;20050;-70
2023/04/04 05:10:01;;;;;;;22.40;4.18;;;;;;;17.47;100.00;99959.69;2067921;28;20053;-70
2023/04/04 05:11:23;;;;;;;21.90;3.83;;;;;;;17.50;100.00;99961.41;2064974;28;20663;-70
2023/04/04 05:12:44;;;;;;;26.35;4.35;;;;;;;17.52;100.00;99952.44;2074132;28;20134;-70
2023/04/04 05:14:12;;;;;;;26.38;4.75;;;;;;;17.57;100.00;99949.66;2068948;28;20042;-70
2023/04/04 05:15:42;;;;;;;21.25;4.45;;;;;;;17.58;100.00;99954.09;2068491;28;20061;-70
2023/04/04 05:17:06;;;;;;;22.88;4.53;;;;;;;17.61;100.00;99953.16;2066138;28;20066;-70
2023/04/04 05:18:29;;;;;;;19.75;4.43;;;;;;;17.61;100.00;99951.38;2066698;28;20513;-69
2023/04/04 05:19:51;;;;;;;25.55;4.35;;;;;;;17.62;100.00;99949.56;2065953;28;20478;-69
2023/04/04 05:21:16;;;;;;;28.92;5.32;;;;;;;17.63;100.00;99956.66;2067380;28;20041;-69
2023/04/04 05:22:42;;;;;;;22.80;4.50;;;;;;;17.64;100.00;99953.09;2072540;28;20086;-70
2023/04/04 05:24:06;;;;;;;19.55;4.70;;;;;;;17.63;100.00;99938.00;2063562;28;20152;-70
2023/04/04 05:25:29;;;;;;;23.30;4.22;;;;;;;17.59;100.00;99931.81;2066922;28;20109;-69
2023/04/04 05:26:52;;;;;;;24.67;3.92;;;;;;;17.51;100.00;99937.38;2062739;28;20042;-70
2023/04/04 05:28:16;;;;;;;23.27;4.20;;;;;;;17.48;100.00;99932.09;2063671;28;20137;-70
2023/04/04 05:29:38;;;;;;;20.83;4.28;;;;;;;17.47;100.00;99937.47;2065020;28;20495;-70
2023/04/04 05:30:59;;;;;;;23.25;4.13;;;;;;;17.45;100.00;99953.53;2066707;28;20516;-69
2023/04/04 05:32:26;;;;;;;29.50;5.00;;;;;;;17.55;100.00;99935.47;2067282;28;20057;-70
2023/04/04 05:33:59;;;;;;;28.85;4.55;;;;;;;17.66;100.00;99943.22;2068216;28;20100;-70
2023/04/04 05:35:25;;;;;;;23.65;5.28;;;;;;;17.74;100.00;99943.91;2067739;28;20046;-70
2023/04/04 05:36:49;;;;;;;23.40;5.05;;;;;;;17.81;100.00;99953.50;2065251;28;20056;-70
2023/04/04 05:38:12;;;;;;;26.48;4.55;;;;;;;17.96;100.00;99961.09;2066183;28;20177;-70
2023/04/04 05:39:35;;;;;;;23.52;5.35;;;;;;;18.16;100.00;99956.09;2064440;28;20050;-70
2023/04/04 05:41:01;;;;;;;27.05;4.63;;;;;;;18.29;100.00;99953.94;2066520;28;20042;-70
2023/04/04 05:42:23;;;;;;;28.63;5.25;;;;;;;18.35;100.00;99952.88;2072178;28;20049;-70
2023/04/04 05:43:49;;;;;;;21.90;5.45;;;;;;;18.37;100.00;99951.06;2068712;28;20144;-70
2023/04/04 05:45:17;;;;;;;25.17;4.47;;;;;;;18.35;100.00;99955.56;2081456;28;20604;-70
2023/04/04 05:46:39;;;;;;;27.52;5.75;;;;;;;18.33;100.00;99945.78;2070610;28;20054;-70
2023/04/04 05:48:04;;;;;;;28.45;5.07;;;;;;;18.37;100.00;99943.91;2066195;28;20394;-70
2023/04/04 05:49:32;;;;;;;26.98;4.00;;;;;;;18.34;100.00;99925.28;2070470;28;20051;-70
2023/04/04 05:50:56;;;;;;;25.65;5.10;;;;;;;18.36;100.00;99951.97;2075152;28;20076;-70
2023/04/04 05:52:30;;;;;;;27.70;4.70;;;;;;;18.55;100.00;99934.47;2067108;28;20422;-71
2023/04/04 05:53:52;;;;;;;87.25;9.93;;;;;;;18.76;100.00;99957.91;2072532;28;20605;-71
2023/04/04 05:55:20;;;;;;;32.28;5.53;;;;;;;18.54;100.00;99957.66;2069094;28;20068;-71
2023/04/04 05:56:46;;;;;;;31.27;5.78;;;;;;;17.99;100.00;99952.13;2064136;28;20042;-71
2023/04/04 05:58:27;;;;;;;32.05;4.78;;;;;;;17.36;100.00;99956.44;2078906;28;20054;-71
2023/04/04 05:59:53;;;;;;;28.95;5.50;;;;;;;16.95;100.00;99972.53;2067672;28;20046;-72
2023/04/04 06:01:17;;;;;;;27.63;4.90;;;;;;;16.65;100.00;99971.44;2073831;28;20045;-71
2023/04/04 06:02:40;;;;;;;30.10;5.68;;;;;;;16.39;100.00;99971.09;2065635;28;20826;-71
2023/04/04 06:04:06;;;;;;;33.55;5.68;;;;;;;16.13;100.00;99977.84;2060015;28;20057;-71
2023/04/04 06:05:29;;;;;;;24.38;4.45;;;;;;;16.08;100.00;99974.38;2061409;28;20050;-71
2023/04/04 06:06:52;;;;;;;31.38;4.65;;;;;;;16.06;100.00;99978.84;2061516;28;20037;-71
2023/04/04 06:08:16;;;;;;;31.05;4.85;;;;;;;16.09;100.00;99980.56;2066077;28;20414;-71
2023/04/04 06:09:40;;;;;;;33.45;5.63;;;;;;;16.16;100.00;99969.78;2069754;28;20057;-71
2023/04/04 06:11:03;;;;;;;35.40;5.43;;;;;;;16.21;100.00;99975.88;2067453;28;20042;-71
2023/04/04 06:12:26;;;;;;;41.05;6.78;;;;;;;16.18;100.00;99973.28;2074885;28;20413;-71
2023/04/04 06:13:49;;;;;;;38.38;7.25;;;;;;;16.14;100.00;99973.38;2062950;28;20041;-71
2023/04/04 06:15:13;;;;;;;38.08;6.60;;;;;;;16.20;100.00;99975.94;2068656;28;20038;-71
2023/04/04 06:16:38;;;;;;;36.40;6.47;;;;;;;16.28;100.00;99973.97;2065078;28;20046;-71
2023/04/04 06:18:01;;;;;;;44.65;8.25;;;;;;;16.24;100.00;99972.28;2072205;28;20449;-72
2023/04/04 06:19:26;;;;;;;47.45;8.02;;;;;;;16.20;100.00;99976.81;2067562;28;20115;-72
2023/04/04 06:20:49;;;;;;;46.33;7.03;;;;;;;16.18;100.00;99965.31;2060916;28;20084;-72
2023/04/04 06:22:12;;;;;;;44.92;6.95;;;;;;;16.25;100.00;99974.91;2068726;28;20049;-71
2023/04/04 06:23:38;;;;;;;35.45;6.18;;;;;;;16.38;100.00;99980.88;2065155;28;20141;-72
2023/04/04 06:25:01;;;;;;;53.97;7.90;;;;;;;16.45;100.00;99981.63;2064867;28;20042;-72
2023/04/04 06:26:25;;;;;;;41.22;6.65;;;;;;;16.54;100.00;99989.44;2066380;28;20045;-72
2023/04/04 06:27:48;;;;;;;44.30;6.25;;;;;;;16.67;100.00;99996.28;2064377;28;20413;-72